Time;durP1;ratioP1;P1;durP2;ratioP2;P2;SDS_P1;SDS_P2;PMS_P1;PMS_P2;Temp;Humidity;BMP_temperature;BMP_pressure;BME280_temperature;BME280_humidity;BME280_pressure;Samples;Min_cycle;Max_cycle;Signal;HPM_P1;HPM_P2
2022/09/23 00:02:11;;;;;;;4.73;4.43;;;19.10;58.90;;;;;;5085948;28;20450;-83
2022/09/23 00:04:40;;;;;;;4.40;4.10;;;19.00;58.20;;;;;;5087716;28;20450;-85
2022/09/23 00:07:08;;;;;;;4.07;3.77;;;18.90;58.80;;;;;;5092010;28;20465;-84
2022/09/23 00:09:36;;;;;;;6.60;3.80;;;18.90;59.20;;;;;;5091346;28;20477;-83
2022/09/23 00:12:05;;;;;;;3.83;3.53;;;19.20;60.10;;;;;;5086984;28;20493;-83
2022/09/23 00:14:38;;;;;;;4.03;3.73;;;19.20;58.70;;;;;;5088605;28;20540;-83
2022/09/23 00:17:07;;;;;;;4.43;4.10;;;19.30;58.40;;;;;;5084113;28;20473;-84
2022/09/23 00:19:37;;;;;;;4.27;3.87;;;19.20;58.30;;;;;;5088395;28;20461;-83
2022/09/23 00:22:06;;;;;;;5.20;4.43;;;19.20;58.80;;;;;;5086096;28;20932;-83
2022/09/23 00:24:34;;;;;;;4.73;4.33;;;19.30;59.00;;;;;;5091817;28;21070;-83
2022/09/23 00:27:02;;;;;;;4.60;4.20;;;19.30;58.60;;;;;;5089403;28;21446;-83
2022/09/23 00:29:30;;;;;;;4.90;4.50;;;19.40;57.70;;;;;;5091680;28;20441;-83
2022/09/23 00:32:00;;;;;;;3.80;3.50;;;19.30;57.60;;;;;;5090893;28;20520;-84
2022/09/23 00:34:29;;;;;;;3.60;3.30;;;19.10;59.40;;;;;;5092230;28;20457;-84
2022/09/23 00:36:57;;;;;;;3.53;3.23;;;19.10;58.30;;;;;;5091847;28;20536;-83
2022/09/23 00:39:26;;;;;;;3.87;3.57;;;19.10;58.80;;;;;;5091269;28;20465;-84
2022/09/23 00:41:54;;;;;;;3.00;2.80;;;19.00;58.00;;;;;;5094650;28;20453;-84
2022/09/23 00:44:44;;;;;;;2.53;2.43;;;18.70;59.70;;;;;;5093167;28;20602;-83
2022/09/23 00:47:22;;;;;;;3.73;3.50;;;18.80;59.70;;;;;;5095802;28;20537;-84
2022/09/23 00:50:00;;;;;;;4.20;3.90;;;18.70;59.30;;;;;;5095301;28;20899;-84
2022/09/23 00:52:30;;;;;;;3.93;3.30;;;18.70;59.40;;;;;;5067185;28;20495;-84
2022/09/23 00:55:02;;;;;;;3.50;3.30;;;18.70;59.30;;;;;;5090526;28;20448;-84
2022/09/23 00:57:30;;;;;;;3.47;3.27;;;18.80;60.70;;;;;;5095796;28;20465;-83
2022/09/23 01:00:00;;;;;;;3.23;2.93;;;18.90;59.00;;;;;;5086094;28;20777;-83
2022/09/23 01:02:30;;;;;;;3.60;3.30;;;18.90;59.30;;;;;;5092146;28;20461;-84
2022/09/23 01:04:59;;;;;;;4.10;3.70;;;19.00;58.70;;;;;;5086273;28;20522;-84
2022/09/23 01:07:27;;;;;;;3.60;3.10;;;19.00;58.50;;;;;;5095646;28;20536;-83
2022/09/23 01:09:56;;;;;;;3.90;3.60;;;18.90;58.30;;;;;;5090112;28;20524;-83
2022/09/23 01:12:47;;;;;;;3.17;2.97;;;18.90;59.40;;;;;;5094718;28;20516;-83
2022/09/23 01:15:19;;;;;;;4.50;4.10;;;18.90;58.20;;;;;;5082671;28;20490;-83
2022/09/23 01:17:57;;;;;;;4.63;4.23;;;18.90;58.90;;;;;;5095102;28;20445;-84
2022/09/23 01:20:58;;;;;;;3.87;3.67;;;18.80;58.40;;;;;;5095103;28;20532;-84
2022/09/23 01:24:06;;;;;;;4.60;3.80;;;18.80;58.40;;;;;;5088928;28;20454;-82
2022/09/23 01:26:56;;;;;;;3.50;3.20;;;18.80;58.20;;;;;;5095095;28;20480;-84
2022/09/23 01:30:07;;;;;;;3.67;3.47;;;18.60;59.70;;;;;;5094319;28;20586;-83
2022/09/23 01:33:00;;;;;;;4.57;4.27;;;18.50;59.20;;;;;;5098717;28;20517;-83
2022/09/23 01:35:41;;;;;;;4.00;3.70;;;18.40;58.90;;;;;;5091112;28;20492;-84
2022/09/23 01:38:20;;;;;;;4.00;3.70;;;18.60;59.20;;;;;;5095140;28;20430;-83
2022/09/23 01:40:58;;;;;;;3.20;3.00;;;18.60;58.70;;;;;;5094378;28;20472;-83
2022/09/23 01:43:35;;;;;;;4.07;3.77;;;18.40;58.60;;;;;;5094136;28;20461;-84
2022/09/23 01:46:08;;;;;;;3.30;3.10;;;18.30;59.00;;;;;;5083093;28;20449;-83
2022/09/23 01:48:42;;;;;;;3.60;3.30;;;18.30;60.80;;;;;;5094836;28;20433;-83
2022/09/23 01:51:16;;;;;;;3.60;3.40;;;18.40;58.60;;;;;;5093534;28;20460;-84
2022/09/23 01:53:49;;;;;;;4.37;4.07;;;18.60;59.70;;;;;;5083426;28;20458;-83
2022/09/23 01:56:22;;;;;;;3.90;3.60;;;18.50;58.10;;;;;;5092600;28;20911;-83
2022/09/23 01:58:56;;;;;;;3.57;3.37;;;18.50;57.90;;;;;;5094259;28;20954;-83
2022/09/23 02:01:31;;;;;;;3.57;3.30;;;18.30;57.90;;;;;;5094336;28;20523;-83
2022/09/23 02:04:07;;;;;;;3.57;3.27;;;18.30;59.10;;;;;;5091158;28;20433;-83
2022/09/23 02:06:41;;;;;;;4.13;3.80;;;18.30;59.10;;;;;;5094271;28;20786;-83
2022/09/23 02:09:12;;;;;;;3.57;3.37;;;18.30;58.90;;;;;;5093796;28;20523;-83
2022/09/23 02:11:46;;;;;;;4.20;3.90;;;18.40;60.00;;;;;;5088146;28;20489;-83
2022/09/23 02:14:20;;;;;;;3.47;3.27;;;18.50;58.50;;;;;;5087471;28;20444;-83
2022/09/23 02:16:51;;;;;;;4.00;3.60;;;18.50;57.80;;;;;;5093682;28;20891;-83
2022/09/23 02:19:27;;;;;;;3.10;2.90;;;18.50;58.30;;;;;;5087973;28;20487;-83
2022/09/23 02:22:01;;;;;;;4.10;3.53;;;18.40;58.70;;;;;;5090049;28;20453;-83
2022/09/23 02:24:31;;;;;;;3.80;3.50;;;18.60;58.10;;;;;;5089955;28;20441;-83
2022/09/23 02:27:12;;;;;;;3.50;3.30;;;18.60;57.80;;;;;;5091868;28;20440;-82
2022/09/23 02:29:53;;;;;;;3.60;3.30;;;18.50;57.90;;;;;;5093867;28;20920;-83
2022/09/23 02:32:27;;;;;;;3.93;3.40;;;18.50;58.10;;;;;;5093211;28;20472;-83
2022/09/23 02:35:01;;;;;;;3.60;3.30;;;18.60;58.20;;;;;;5093785;28;20442;-83
2022/09/23 02:37:39;;;;;;;3.30;3.10;;;18.60;58.00;;;;;;5093874;28;20449;-83
2022/09/23 02:40:14;;;;;;;6.03;4.00;;;18.60;58.00;;;;;;5086162;28;20788;-83
2022/09/23 02:42:56;;;;;;;3.70;3.40;;;18.70;57.80;;;;;;5091756;28;20457;-83
2022/09/23 02:45:25;;;;;;;3.13;2.93;;;18.60;57.90;;;;;;5074757;28;20464;-83
2022/09/23 02:48:10;;;;;;;3.37;3.10;;;18.50;56.50;;;;;;5085682;28;20770;-83
2022/09/23 02:50:39;;;;;;;3.77;3.47;;;18.30;58.50;;;;;;5090875;28;20445;-83
2022/09/23 02:53:08;;;;;;;3.13;2.90;;;18.00;57.50;;;;;;5086685;28;20461;-83
2022/09/23 02:55:36;;;;;;;4.50;3.30;;;18.00;58.70;;;;;;5093026;28;20452;-83
2022/09/23 02:58:05;;;;;;;2.67;2.57;;;17.90;58.70;;;;;;5093657;28;20861;-83
2022/09/23 03:00:43;;;;;;;3.50;3.30;;;17.80;58.70;;;;;;5089563;28;21070;-82
2022/09/23 03:03:23;;;;;;;3.07;2.87;;;17.70;58.60;;;;;;5092433;28;20453;-83
2022/09/23 03:05:56;;;;;;;3.30;3.10;;;17.70;58.40;;;;;;5084009;28;20433;-83
2022/09/23 03:08:35;;;;;;;2.80;2.60;;;17.80;59.10;;;;;;5074680;28;20792;-83
2022/09/23 03:11:07;;;;;;;2.70;2.60;;;18.00;58.80;;;;;;5092819;28;20460;-83
2022/09/23 03:13:51;;;;;;;2.90;2.73;;;18.10;59.90;;;;;;5073664;28;20998;-83
2022/09/23 03:16:29;;;;;;;3.23;3.03;;;18.10;58.40;;;;;;5083867;28;20809;-83
2022/09/23 03:19:05;;;;;;;3.47;3.27;;;18.10;58.10;;;;;;5091539;28;20434;-84
2022/09/23 03:21:41;;;;;;;3.27;3.07;;;18.10;58.10;;;;;;5092593;28;20441;-83
2022/09/23 03:24:13;;;;;;;3.30;3.10;;;18.20;57.80;;;;;;5089800;28;20440;-83
2022/09/23 03:26:46;;;;;;;3.50;3.30;;;18.10;58.00;;;;;;5083860;28;20445;-83
2022/09/23 03:29:16;;;;;;;2.87;2.67;;;18.10;56.90;;;;;;5092364;28;20521;-82
2022/09/23 03:31:45;;;;;;;3.33;3.03;;;18.10;57.60;;;;;;5091485;28;20920;-83
2022/09/23 03:34:17;;;;;;;4.00;3.70;;;18.10;57.40;;;;;;5068429;28;20434;-83
2022/09/23 03:36:52;;;;;;;3.80;3.50;;;18.10;57.50;;;;;;5092701;28;20457;-82
2022/09/23 03:39:29;;;;;;;3.50;3.30;;;18.00;57.20;;;;;;5092345;28;20448;-83
2022/09/23 03:42:02;;;;;;;3.77;3.57;;;18.10;57.20;;;;;;5086988;28;20456;-83
2022/09/23 03:44:30;;;;;;;3.70;3.40;;;17.90;57.20;;;;;;5092432;28;20511;-83
2022/09/23 03:47:02;;;;;;;2.97;2.77;;;17.40;58.00;;;;;;5092946;28;20462;-83
2022/09/23 03:49:35;;;;;;;4.50;3.87;;;17.50;60.10;;;;;;5092112;28;20471;-84
2022/09/23 03:52:04;;;;;;;3.63;3.33;;;17.50;58.20;;;;;;5091984;28;20488;-83
2022/09/23 03:54:33;;;;;;;3.90;3.60;;;17.60;60.10;;;;;;5090597;28;20457;-83
2022/09/23 03:57:01;;;;;;;3.17;2.93;;;17.70;57.80;;;;;;5089582;28;20524;-83
2022/09/23 03:59:30;;;;;;;3.13;2.83;;;17.60;57.70;;;;;;5092541;28;20440;-84
2022/09/23 04:01:59;;;;;;;3.20;3.00;;;17.60;58.00;;;;;;5092034;28;21275;-83
2022/09/23 04:04:28;;;;;;;2.80;2.60;;;17.50;57.60;;;;;;5084182;28;20449;-83
2022/09/23 04:06:56;;;;;;;3.20;2.90;;;17.40;57.90;;;;;;5092347;28;20957;-84
2022/09/23 04:09:26;;;;;;;3.77;3.50;;;17.50;58.40;;;;;;5091811;28;20460;-83
2022/09/23 04:11:54;;;;;;;3.87;3.57;;;17.50;58.10;;;;;;5091175;28;20469;-83
2022/09/23 04:14:23;;;;;;;2.60;2.47;;;17.40;57.40;;;;;;5088639;28;20464;-83
2022/09/23 04:16:52;;;;;;;3.20;3.00;;;17.20;58.50;;;;;;5093970;28;21774;-83
2022/09/23 04:19:20;;;;;;;2.97;2.77;;;17.20;58.30;;;;;;5088089;28;20442;-82
2022/09/23 04:21:49;;;;;;;2.30;2.20;;;17.20;59.10;;;;;;5095361;28;20439;-82
2022/09/23 04:24:17;;;;;;;3.67;3.37;;;17.20;59.10;;;;;;5096245;28;20785;-83
2022/09/23 04:26:51;;;;;;;4.33;4.03;;;17.10;58.30;;;;;;5092632;28;20453;-83
2022/09/23 04:29:19;;;;;;;3.07;2.87;;;16.80;59.60;;;;;;5082840;28;20455;-83
2022/09/23 04:31:47;;;;;;;3.70;3.40;;;16.90;60.10;;;;;;5092024;28;20900;-82
2022/09/23 04:34:16;;;;;;;3.37;3.10;;;17.10;59.30;;;;;;5090329;28;20479;-82
2022/09/23 04:36:45;;;;;;;3.87;3.57;;;17.30;59.70;;;;;;5095850;28;20487;-82
2022/09/23 04:39:15;;;;;;;3.80;3.50;;;17.40;58.80;;;;;;5094531;28;20533;-84
2022/09/23 04:41:44;;;;;;;4.10;3.80;;;17.40;58.60;;;;;;5092187;28;20433;-84
2022/09/23 04:44:15;;;;;;;4.23;3.83;;;17.50;59.40;;;;;;5088799;28;20472;-84
2022/09/23 04:46:46;;;;;;;3.37;3.10;;;17.50;57.90;;;;;;5088671;28;20471;-81
2022/09/23 04:49:15;;;;;;;3.23;3.03;;;17.40;62.60;;;;;;5082609;28;20438;-81
2022/09/23 04:51:43;;;;;;;2.80;2.60;;;17.80;63.80;;;;;;5088726;28;20445;-81
2022/09/23 04:54:13;;;;;;;2.23;2.10;;;18.30;63.30;;;;;;5083110;28;20544;-82
2022/09/23 04:56:41;;;;;;;2.80;2.60;;;18.80;62.00;;;;;;5083877;28;20449;-81
2022/09/23 04:59:09;;;;;;;2.10;2.00;;;19.30;61.50;;;;;;5085240;28;20437;-81
2022/09/23 05:01:39;;;;;;;2.20;2.10;;;19.70;60.30;;;;;;5085391;28;20559;-86
2022/09/23 05:04:13;;;;;;;3.07;2.87;;;20.00;61.60;;;;;;5088421;28;20495;-80
2022/09/23 05:06:42;;;;;;;1.90;1.80;;;20.40;61.60;;;;;;5094642;28;20453;-82
2022/09/23 05:09:14;;;;;;;3.10;2.20;;;20.60;61.40;;;;;;5091221;28;20437;-85
2022/09/23 05:11:43;;;;;;;2.20;2.00;;;20.90;61.50;;;;;;5086583;28;20489;-83
2022/09/23 05:14:12;;;;;;;4.00;1.93;;;21.00;61.30;;;;;;5092336;28;20469;-84
2022/09/23 05:16:41;;;;;;;2.07;1.97;;;21.20;61.10;;;;;;5092012;28;20457;-82
2022/09/23 05:19:10;;;;;;;2.23;2.07;;;21.40;61.10;;;;;;5089845;28;20463;-83
2022/09/23 05:21:39;;;;;;;2.50;2.30;;;21.50;60.90;;;;;;5085372;28;20511;-81
2022/09/23 05:24:07;;;;;;;2.60;2.03;;;21.60;60.80;;;;;;5092481;28;20797;-83
2022/09/23 05:26:35;;;;;;;2.63;2.17;;;21.70;60.70;;;;;;5094984;28;20449;-83
2022/09/23 05:29:04;;;;;;;2.20;2.00;;;21.80;60.60;;;;;;5089564;28;20455;-83
2022/09/23 05:31:33;;;;;;;3.30;1.90;;;21.90;60.60;;;;;;5089603;28;20535;-83
2022/09/23 05:34:04;;;;;;;2.10;2.00;;;21.90;60.50;;;;;;5087401;28;20523;-83
2022/09/23 05:36:35;;;;;;;3.50;2.33;;;22.00;60.50;;;;;;5086373;28;20468;-84
2022/09/23 05:39:06;;;;;;;2.27;2.07;;;22.00;60.40;;;;;;5081478;28;20532;-83
2022/09/23 05:41:35;;;;;;;3.50;2.17;;;22.10;60.20;;;;;;5088661;28;21027;-83
2022/09/23 05:44:03;;;;;;;5.30;2.80;;;22.10;60.20;;;;;;5066996;28;20942;-83
2022/09/23 05:46:31;;;;;;;2.70;2.50;;;22.20;60.30;;;;;;5072189;28;20482;-84
2022/09/23 05:49:02;;;;;;;2.23;2.07;;;22.20;60.30;;;;;;5090910;28;20489;-83
2022/09/23 05:51:34;;;;;;;4.83;2.60;;;22.20;60.30;;;;;;5085959;28;20501;-82
2022/09/23 05:54:02;;;;;;;2.97;2.20;;;22.30;60.30;;;;;;5084898;28;20573;-82
2022/09/23 05:56:32;;;;;;;2.60;2.17;;;22.30;60.30;;;;;;5086049;28;20442;-82
2022/09/23 05:59:02;;;;;;;3.00;2.43;;;22.30;60.30;;;;;;5084578;28;20442;-82
2022/09/23 06:01:32;;;;;;;5.43;2.70;;;22.30;60.40;;;;;;5086285;28;20458;-84
2022/09/23 06:04:04;;;;;;;2.30;1.80;;;22.30;60.40;;;;;;5086011;28;20943;-83
2022/09/23 06:06:34;;;;;;;3.63;2.07;;;22.30;60.40;;;;;;5085826;28;20434;-83
2022/09/23 06:09:04;;;;;;;2.37;2.17;;;22.40;60.40;;;;;;5081324;28;20608;-84
2022/09/23 06:11:34;;;;;;;2.30;2.10;;;22.40;60.40;;;;;;5082980;28;20490;-83
2022/09/23 06:14:04;;;;;;;2.37;2.20;;;22.40;60.40;;;;;;5089262;28;20468;-83
2022/09/23 06:16:34;;;;;;;2.30;2.20;;;22.40;60.50;;;;;;5066418;28;20801;-83
2022/09/23 06:19:05;;;;;;;2.50;2.30;;;22.40;60.50;;;;;;5088503;28;20450;-84
2022/09/23 06:21:37;;;;;;;1.90;1.80;;;22.40;60.50;;;;;;5093498;28;20444;-83
2022/09/23 06:24:05;;;;;;;2.10;2.00;;;22.40;60.50;;;;;;5091824;28;20442;-82
2022/09/23 06:26:36;;;;;;;3.10;2.80;;;22.40;60.40;;;;;;5093776;28;20998;-83
2022/09/23 06:29:10;;;;;;;2.20;2.00;;;22.40;60.50;;;;;;5087671;28;20455;-84
2022/09/23 06:31:40;;;;;;;6.20;2.80;;;22.50;60.40;;;;;;5083227;28;20530;-84
2022/09/23 06:34:12;;;;;;;4.07;2.10;;;22.50;60.70;;;;;;5084442;28;20467;-85
2022/09/23 06:36:42;;;;;;;2.30;2.10;;;22.50;60.70;;;;;;5089305;28;20820;-83
2022/09/23 06:39:14;;;;;;;2.30;2.20;;;22.60;60.70;;;;;;5082249;28;20450;-84
2022/09/23 06:41:42;;;;;;;2.50;2.07;;;22.60;60.80;;;;;;5085109;28;20452;-84
2022/09/23 06:44:14;;;;;;;2.20;1.90;;;22.60;60.80;;;;;;5092876;28;20510;-83
2022/09/23 06:46:43;;;;;;;2.40;2.17;;;22.70;60.80;;;;;;5093378;28;20450;-83
2022/09/23 06:49:12;;;;;;;2.13;1.90;;;22.70;60.80;;;;;;5092888;28;20928;-85
2022/09/23 06:51:41;;;;;;;2.43;2.23;;;22.70;60.80;;;;;;5091957;28;20446;-82
2022/09/23 06:54:09;;;;;;;2.70;2.30;;;22.70;60.90;;;;;;5091227;28;20503;-85
2022/09/23 06:56:38;;;;;;;2.70;1.90;;;22.70;60.80;;;;;;5093211;28;20451;-84
2022/09/23 06:59:09;;;;;;;2.07;1.97;;;22.80;60.90;;;;;;5092848;28;20444;-83
2022/09/23 07:01:37;;;;;;;2.47;2.27;;;22.80;60.90;;;;;;5092825;28;20513;-84
2022/09/23 07:04:06;;;;;;;4.67;2.67;;;22.80;60.90;;;;;;5092759;28;20468;-83
2022/09/23 07:06:36;;;;;;;2.83;2.30;;;22.90;60.90;;;;;;5092604;28;20444;-83
2022/09/23 07:09:06;;;;;;;2.30;2.10;;;22.90;60.90;;;;;;5092975;28;20602;-83
2022/09/23 07:11:34;;;;;;;2.30;2.10;;;22.90;60.90;;;;;;5092421;28;20502;-84
2022/09/23 07:14:03;;;;;;;2.00;1.90;;;22.90;60.90;;;;;;5092457;28;20814;-84
2022/09/23 07:16:31;;;;;;;2.50;2.10;;;22.90;60.90;;;;;;5092828;28;20444;-83
2022/09/23 07:18:59;;;;;;;2.03;1.70;;;22.90;60.80;;;;;;5089345;28;20441;-84
2022/09/23 07:21:28;;;;;;;2.63;2.43;;;23.00;60.80;;;;;;5092393;28;20444;-83
2022/09/23 07:23:57;;;;;;;2.70;2.23;;;23.00;60.90;;;;;;5092606;28;20439;-84
2022/09/23 07:26:26;;;;;;;2.73;1.90;;;23.00;60.90;;;;;;5092995;28;20448;-82
2022/09/23 07:28:55;;;;;;;3.73;1.77;;;23.00;60.80;;;;;;5083283;28;20441;-83
2022/09/23 07:31:24;;;;;;;2.20;2.10;;;23.10;60.80;;;;;;5086175;28;20452;-84
2022/09/23 07:34:07;;;;;;;2.00;1.80;;;23.10;60.80;;;;;;5085323;28;20472;-85
2022/09/23 07:36:36;;;;;;;2.63;2.20;;;23.10;60.70;;;;;;5085549;28;21172;-84
2022/09/23 07:39:06;;;;;;;3.97;2.43;;;23.10;60.80;;;;;;5092241;28;20453;-84
2022/09/23 07:41:36;;;;;;;2.37;2.27;;;23.10;60.70;;;;;;5092089;28;20788;-85
2022/09/23 07:44:05;;;;;;;2.30;1.80;;;23.10;60.70;;;;;;5090185;28;20443;-85
2022/09/23 07:46:35;;;;;;;2.80;2.60;;;23.20;60.70;;;;;;5088466;28;20485;-85
2022/09/23 07:49:05;;;;;;;2.43;2.33;;;23.20;60.70;;;;;;5091878;28;20443;-82
2022/09/23 07:51:35;;;;;;;4.23;2.10;;;23.20;60.70;;;;;;5092584;28;20444;-84
2022/09/23 07:54:07;;;;;;;2.67;2.47;;;23.20;60.70;;;;;;5092259;28;20440;-84
2022/09/23 07:56:37;;;;;;;2.70;2.50;;;23.20;60.80;;;;;;5092113;28;20502;-82
2022/09/23 07:59:07;;;;;;;2.60;2.03;;;23.20;60.70;;;;;;5073525;28;20531;-83
2022/09/23 08:01:38;;;;;;;3.33;2.43;;;23.30;60.80;;;;;;5088720;28;20535;-81
2022/09/23 08:04:08;;;;;;;2.10;2.00;;;23.30;60.70;;;;;;5086297;28;20453;-83
2022/09/23 08:06:39;;;;;;;3.13;2.20;;;23.30;60.70;;;;;;5091278;28;20437;-83
2022/09/23 08:09:10;;;;;;;3.10;2.10;;;23.30;60.70;;;;;;5092096;28;20521;-82
2022/09/23 08:11:40;;;;;;;2.83;2.00;;;23.30;60.70;;;;;;5091634;28;21256;-82
2022/09/23 08:14:09;;;;;;;2.83;2.00;;;23.30;60.60;;;;;;5079240;28;20935;-82
2022/09/23 08:16:38;;;;;;;2.60;2.30;;;23.30;60.70;;;;;;5087284;28;20436;-82
2022/09/23 08:19:07;;;;;;;1.90;1.80;;;23.30;60.60;;;;;;5091826;28;20497;-84
2022/09/23 08:21:36;;;;;;;2.37;2.27;;;23.40;60.70;;;;;;5091451;28;20982;-81
2022/09/23 08:24:04;;;;;;;2.27;2.10;;;23.40;60.70;;;;;;5090088;28;20531;-82
2022/09/23 08:26:35;;;;;;;2.30;1.90;;;23.40;60.60;;;;;;5084167;28;20964;-82
2022/09/23 08:29:04;;;;;;;2.20;2.10;;;23.40;60.60;;;;;;5090919;28;20463;-83
2022/09/23 08:31:32;;;;;;;2.20;2.00;;;23.40;60.60;;;;;;5092415;28;20582;-85
2022/09/23 08:34:00;;;;;;;5.23;2.10;;;23.40;60.60;;;;;;5073495;28;20499;-85
2022/09/23 08:36:28;;;;;;;2.10;1.90;;;23.40;60.60;;;;;;5092151;28;20463;-83
2022/09/23 08:38:57;;;;;;;2.00;1.90;;;23.50;60.60;;;;;;5073336;28;20447;-84
2022/09/23 08:41:35;;;;;;;2.33;2.13;;;23.50;60.60;;;;;;5069047;28;20945;-85
2022/09/23 08:44:13;;;;;;;1.80;1.70;;;23.50;60.60;;;;;;5092189;28;20440;-83
2022/09/23 08:46:47;;;;;;;2.63;1.63;;;23.50;60.60;;;;;;5089195;28;20444;-84
2022/09/23 08:49:25;;;;;;;2.10;1.90;;;23.50;60.50;;;;;;5091940;28;20455;-85
2022/09/23 08:51:55;;;;;;;5.03;2.00;;;23.50;60.50;;;;;;5073907;28;20919;-83
2022/09/23 08:54:28;;;;;;;2.13;2.03;;;23.50;60.50;;;;;;5091310;28;20461;-85
2022/09/23 08:57:00;;;;;;;2.53;2.20;;;23.60;60.40;;;;;;5092038;28;20437;-84
2022/09/23 08:59:37;;;;;;;2.70;2.07;;;23.60;60.40;;;;;;5091717;28;20958;-84
2022/09/23 09:02:11;;;;;;;2.00;1.90;;;23.60;60.30;;;;;;5094652;28;20451;-85
2022/09/23 09:04:43;;;;;;;3.13;2.60;;;23.60;60.30;;;;;;5093979;28;20777;-85
2022/09/23 09:07:15;;;;;;;2.30;2.10;;;23.60;60.20;;;;;;5094916;28;20765;-84
2022/09/23 09:10:10;;;;;;;1.97;1.87;;;23.70;60.00;;;;;;5087970;28;20475;-85
2022/09/23 09:12:43;;;;;;;3.33;2.33;;;23.70;59.90;;;;;;5094315;28;20498;-85
2022/09/23 09:15:15;;;;;;;1.83;1.73;;;23.70;60.00;;;;;;5104696;28;20468;-85
2022/09/23 09:17:50;;;;;;;2.33;2.00;;;23.70;60.00;;;;;;5065098;28;20930;-86
2022/09/23 09:20:24;;;;;;;2.20;2.10;;;23.70;60.10;;;;;;5097272;28;20436;-86
2022/09/23 09:22:56;;;;;;;2.53;2.33;;;23.70;60.10;;;;;;5092064;28;20895;-84
2022/09/23 09:25:39;;;;;;;1.90;1.80;;;23.70;60.10;;;;;;5092305;28;20520;-84
2022/09/23 09:28:17;;;;;;;3.20;2.63;;;23.80;60.00;;;;;;5087768;28;20524;-84
2022/09/23 09:30:52;;;;;;;2.87;2.37;;;23.80;60.00;;;;;;5092994;28;20524;-83
2022/09/23 09:33:29;;;;;;;2.20;2.03;;;23.90;59.90;;;;;;5095103;28;20444;-86
2022/09/23 09:36:07;;;;;;;2.20;2.03;;;23.90;59.90;;;;;;5094282;28;20566;-86
2022/09/23 09:38:36;;;;;;;2.67;2.17;;;23.90;59.90;;;;;;5091417;28;20461;-86
2022/09/23 09:41:13;;;;;;;1.90;1.80;;;24.00;59.80;;;;;;5094777;28;20460;-83
2022/09/23 09:43:43;;;;;;;2.00;1.90;;;24.00;59.80;;;;;;5094272;28;20919;-84
2022/09/23 09:46:28;;;;;;;2.90;2.70;;;24.00;59.80;;;;;;5094408;28;20441;-84
2022/09/23 09:49:00;;;;;;;1.97;1.87;;;24.00;59.70;;;;;;5094687;28;20425;-84
2022/09/23 09:51:29;;;;;;;2.10;2.00;;;24.10;59.70;;;;;;5094571;28;20456;-84
2022/09/23 09:54:16;;;;;;;2.30;2.20;;;24.10;59.70;;;;;;5094175;28;20488;-84
2022/09/23 09:56:45;;;;;;;2.33;1.90;;;24.10;59.60;;;;;;5092561;28;20468;-82
2022/09/23 09:59:24;;;;;;;2.70;2.50;;;24.10;59.60;;;;;;5093216;28;20481;-85
2022/09/23 10:02:13;;;;;;;2.40;2.30;;;24.20;59.60;;;;;;5085001;28;20437;-84
2022/09/23 10:04:41;;;;;;;2.07;1.87;;;24.20;59.50;;;;;;5089032;28;20464;-84
2022/09/23 10:07:14;;;;;;;2.00;1.80;;;24.20;59.50;;;;;;5092762;28;21007;-85
2022/09/23 10:09:49;;;;;;;3.47;2.40;;;24.20;59.40;;;;;;5093331;28;20425;-85
2022/09/23 10:12:19;;;;;;;3.30;3.10;;;24.20;59.40;;;;;;5087522;28;20846;-85
2022/09/23 10:14:50;;;;;;;1.97;1.87;;;24.20;59.40;;;;;;5093975;28;20533;-86
2022/09/23 10:17:21;;;;;;;2.47;2.27;;;24.30;59.30;;;;;;5085846;28;20844;-83
2022/09/23 10:19:56;;;;;;;2.80;2.60;;;24.30;59.30;;;;;;5093010;28;20445;-86
2022/09/23 10:22:28;;;;;;;2.57;1.97;;;24.30;59.30;;;;;;5094324;28;20433;-86
2022/09/23 10:25:02;;;;;;;2.63;2.53;;;24.40;59.20;;;;;;5084691;28;20521;-86
2022/09/23 10:27:32;;;;;;;2.40;2.23;;;24.40;59.10;;;;;;5091959;28;20453;-85
2022/09/23 10:30:02;;;;;;;2.43;2.27;;;24.40;59.10;;;;;;5093444;28;20529;-86
2022/09/23 10:32:36;;;;;;;2.70;2.10;;;24.50;58.90;;;;;;5092213;28;20775;-85
2022/09/23 10:35:14;;;;;;;2.20;2.00;;;24.50;58.90;;;;;;5092845;28;20438;-85
2022/09/23 10:37:47;;;;;;;2.00;1.90;;;24.60;58.90;;;;;;5087472;28;20897;-88
2022/09/23 10:49:48;;;;;;;8.13;2.23;;;24.90;58.20;;;;;;5092747;28;20469;-87
2022/09/23 10:52:31;;;;;;;2.47;2.03;;;25.00;58.00;;;;;;5073697;28;20476;-86
2022/09/23 10:55:10;;;;;;;2.37;2.17;;;25.00;57.80;;;;;;5091879;28;20446;-86
2022/09/23 10:58:01;;;;;;;2.70;2.50;;;25.10;57.60;;;;;;5072932;28;20478;-82
2022/09/23 11:00:40;;;;;;;2.90;2.67;;;25.20;57.70;;;;;;5091858;28;20438;-83
2022/09/23 11:03:52;;;;;;;2.93;2.73;;;25.30;57.30;;;;;;5092219;28;20447;-83
2022/09/23 11:06:30;;;;;;;3.13;2.93;;;25.40;57.30;;;;;;5088776;28;20452;-82
2022/09/23 11:09:14;;;;;;;3.63;2.90;;;25.50;57.10;;;;;;5088211;28;20854;-83
2022/09/23 11:11:54;;;;;;;2.70;2.23;;;25.60;56.90;;;;;;5090341;28;20493;-84
2022/09/23 11:14:54;;;;;;;2.73;2.57;;;25.70;56.70;;;;;;5090787;28;20468;-84
2022/09/23 11:17:43;;;;;;;2.80;2.60;;;25.70;56.60;;;;;;5088229;28;20690;-86
2022/09/23 11:20:33;;;;;;;2.47;2.37;;;25.80;56.40;;;;;;5080994;28;20794;-83
2022/09/23 11:23:31;;;;;;;2.30;2.20;;;25.80;56.30;;;;;;5078805;28;20804;-82
2022/09/23 11:26:08;;;;;;;2.17;2.07;;;25.90;56.20;;;;;;5062235;28;20453;-83
2022/09/23 11:29:01;;;;;;;2.60;2.40;;;26.00;55.90;;;;;;5084467;28;20936;-86
2022/09/23 11:31:38;;;;;;;2.67;2.47;;;26.20;55.60;;;;;;5090009;28;20495;-81
2022/09/23 11:34:29;;;;;;;2.30;2.10;;;26.40;55.30;;;;;;5089423;28;20976;-83
2022/09/23 11:37:03;;;;;;;3.17;2.20;;;26.60;54.90;;;;;;5075772;28;20544;-82
2022/09/23 11:39:37;;;;;;;2.03;1.93;;;26.70;54.60;;;;;;5087155;28;20453;-83
2022/09/23 11:42:11;;;;;;;2.13;2.03;;;26.80;54.40;;;;;;5092782;28;20473;-83
2022/09/23 11:44:43;;;;;;;2.10;2.00;;;27.00;54.10;;;;;;5085094;28;20786;-82
2022/09/23 11:47:18;;;;;;;2.23;2.03;;;27.10;53.80;;;;;;5087217;28;20772;-83
2022/09/23 11:49:53;;;;;;;1.73;1.63;;;27.10;53.70;;;;;;5087367;28;20932;-82
2022/09/23 11:52:26;;;;;;;1.70;1.60;;;27.20;53.60;;;;;;5088878;28;20441;-82
2022/09/23 11:55:01;;;;;;;2.53;2.33;;;27.30;53.40;;;;;;5083571;28;20456;-82
2022/09/23 11:57:45;;;;;;;3.73;2.23;;;27.40;53.30;;;;;;5081734;28;20821;-84
2022/09/23 12:00:19;;;;;;;2.53;2.13;;;27.30;53.40;;;;;;5061560;28;20451;-82
2022/09/23 12:03:01;;;;;;;2.40;2.20;;;27.20;53.60;;;;;;5087665;28;20454;-82
2022/09/23 12:05:39;;;;;;;2.20;2.10;;;27.20;53.90;;;;;;5092333;28;20471;-81
2022/09/23 12:08:17;;;;;;;2.00;1.90;;;27.30;53.90;;;;;;5087596;28;20532;-82
2022/09/23 12:10:55;;;;;;;2.50;2.30;;;27.30;53.80;;;;;;5081390;28;20439;-81
2022/09/23 12:13:30;;;;;;;2.17;2.07;;;27.40;53.80;;;;;;5085714;28;20581;-81
2022/09/23 12:16:33;;;;;;;2.17;1.97;;;27.50;53.50;;;;;;5075305;28;20467;-83
2022/09/23 12:19:17;;;;;;;2.20;2.00;;;27.60;53.20;;;;;;5086994;28;20768;-84
2022/09/23 12:22:09;;;;;;;3.43;2.20;;;27.70;53.10;;;;;;5092276;28;20462;-84
2022/09/23 12:24:54;;;;;;;2.60;2.10;;;27.80;52.90;;;;;;5072585;28;20502;-85
2022/09/23 12:27:33;;;;;;;2.20;2.00;;;27.80;52.70;;;;;;5080892;28;20505;-82
2022/09/23 12:30:04;;;;;;;4.70;2.40;;;27.90;52.60;;;;;;5091658;28;20451;-83
2022/09/23 12:32:33;;;;;;;2.17;2.07;;;28.00;52.50;;;;;;5091995;28;21286;-82
2022/09/23 12:35:02;;;;;;;2.73;2.27;;;28.00;52.40;;;;;;5090562;28;20447;-83
2022/09/23 12:37:34;;;;;;;2.10;2.00;;;28.10;52.30;;;;;;5094791;28;20471;-83
2022/09/23 12:40:09;;;;;;;2.20;2.10;;;28.10;52.30;;;;;;5092659;28;20443;-83
2022/09/23 12:42:45;;;;;;;2.40;2.20;;;28.10;52.30;;;;;;5095161;28;20870;-83
2022/09/23 12:45:33;;;;;;;2.20;2.10;;;28.10;52.30;;;;;;5095054;28;20439;-83
2022/09/23 12:48:03;;;;;;;4.17;2.50;;;28.00;52.30;;;;;;5070014;28;20451;-83
2022/09/23 12:50:50;;;;;;;1.97;1.87;;;28.00;52.50;;;;;;5088084;28;20436;-83
2022/09/23 12:53:51;;;;;;;2.30;2.10;;;27.90;52.60;;;;;;5082592;28;20455;-83
2022/09/23 12:56:22;;;;;;;2.10;2.00;;;27.90;52.70;;;;;;5071198;28;20443;-83
2022/09/23 12:59:20;;;;;;;2.77;2.53;;;27.80;52.80;;;;;;5088561;28;20467;-85
2022/09/23 13:01:48;;;;;;;2.50;2.30;;;27.80;52.80;;;;;;5083994;28;20476;-83
2022/09/23 13:07:26;;;;;;;2.33;2.17;;;27.70;53.20;;;;;;5084131;28;20484;-82
2022/09/23 13:10:02;;;;;;;2.30;2.10;;;27.70;53.40;;;;;;5109078;28;20439;-84
2022/09/23 13:12:34;;;;;;;2.00;1.90;;;27.70;53.50;;;;;;5101377;28;20512;-83
2022/09/23 13:15:15;;;;;;;7.60;2.43;;;27.70;53.60;;;;;;5094236;28;20441;-83
2022/09/23 13:17:43;;;;;;;2.50;1.93;;;27.70;53.70;;;;;;5078289;28;20801;-84
2022/09/23 13:20:37;;;;;;;2.20;2.10;;;27.70;53.80;;;;;;5089843;28;20486;-82
2022/09/23 13:23:19;;;;;;;2.27;1.87;;;27.70;53.90;;;;;;5073928;28;20535;-82
2022/09/23 13:25:50;;;;;;;2.27;2.07;;;27.70;53.90;;;;;;5079741;28;20451;-83
2022/09/23 13:28:26;;;;;;;2.07;1.97;;;27.70;53.90;;;;;;5095449;28;20476;-82
2022/09/23 13:30:57;;;;;;;2.90;2.33;;;27.70;54.00;;;;;;5097410;28;20502;-82
2022/09/23 13:33:34;;;;;;;2.00;1.90;;;27.70;54.10;;;;;;5101275;28;20444;-81
2022/09/23 13:36:05;;;;;;;2.20;2.10;;;27.60;54.20;;;;;;5074964;28;20436;-81